Terminal Aerodrome Forecast
Issued by NWS

Home | Current Version | Previous Version | Text Only | Print | Product List | Glossary On
Versions: 1 2 3 4 5 6 7 8 9 10 11 12 13
449
FTUS46 KEKA 222335
TAFUKI
TAF
KUKI 222335Z 2300/2324 28009KT P6SM SKC
     FM230600 17004KT P6SM SKC
     FM231000 00000KT P6SM SKC=

USA.gov is the U.S. government's official web portal to all federal, state and local government web resources and services.